Golden Triangle Regional Air, Mississippi
Current Conditions -  °F | °C
As of 2:45 PM on Sunday 21 Dec 2014 (Local Time) from KGTR Reporting Station
Overcast Overcast  
Wind Chill: 52°   Ceiling: 3000
Heat Index: 52°   Visibility: 10mi
Dew Point: 43°   Wind: 3mph
Humidity: 71%   Direction: 40°NE
Pressure: 30.06"   Gusts: NA
Location:  33.455°N, 88.5512°W
Report Text: KGTR 212045Z 04003KT 10SM OVC030 11/06 A3006
Loading
Personal Weather Stations






























Interactive Weather Map New forecast layout! Learn more

10-Day Weather Forecast

Advertisements
Track Severe Weather on mobile